sensor_id;sensor_type;location;lat;lon;timestamp;temperature;humidity
22319;DHT22;11327;52.334;9.506;2024-01-07T00:01:23;1.00;99.90
22319;DHT22;11327;52.334;9.506;2024-01-07T00:04:44;0.90;99.90
22319;DHT22;11327;52.334;9.506;2024-01-07T00:08:05;0.90;99.90
22319;DHT22;11327;52.334;9.506;2024-01-07T00:11:25;0.90;99.90
22319;DHT22;11327;52.334;9.506;2024-01-07T00:14:46;0.90;99.90
22319;DHT22;11327;52.334;9.506;2024-01-07T00:18:07;0.80;99.90
22319;DHT22;11327;52.334;9.506;2024-01-07T00:21:28;0.80;99.90
22319;DHT22;11327;52.334;9.506;2024-01-07T00:24:49;0.90;99.90
22319;DHT22;11327;52.334;9.506;2024-01-07T00:28:10;0.80;99.90
22319;DHT22;11327;52.334;9.506;2024-01-07T00:31:31;0.80;99.90
22319;DHT22;11327;52.334;9.506;2024-01-07T00:34:52;0.80;99.90
22319;DHT22;11327;52.334;9.506;2024-01-07T00:38:13;0.90;99.90
22319;DHT22;11327;52.334;9.506;2024-01-07T00:41:34;0.90;99.90
22319;DHT22;11327;52.334;9.506;2024-01-07T00:44:55;0.90;99.90
22319;DHT22;11327;52.334;9.506;2024-01-07T00:48:15;0.90;99.90
22319;DHT22;11327;52.334;9.506;2024-01-07T00:51:36;0.80;99.90
22319;DHT22;11327;52.334;9.506;2024-01-07T00:54:57;0.80;99.90
22319;DHT22;11327;52.334;9.506;2024-01-07T00:58:17;0.90;99.90
22319;DHT22;11327;52.334;9.506;2024-01-07T01:01:38;0.80;99.90
22319;DHT22;11327;52.334;9.506;2024-01-07T01:04:59;0.90;99.90
22319;DHT22;11327;52.334;9.506;2024-01-07T01:08:20;0.80;99.90
22319;DHT22;11327;52.334;9.506;2024-01-07T01:11:40;0.80;99.90
22319;DHT22;11327;52.334;9.506;2024-01-07T01:15:01;0.70;99.90
22319;DHT22;11327;52.334;9.506;2024-01-07T01:18:22;0.70;99.90
22319;DHT22;11327;52.334;9.506;2024-01-07T01:21:42;0.70;99.90
22319;DHT22;11327;52.334;9.506;2024-01-07T01:25:04;0.70;99.90
22319;DHT22;11327;52.334;9.506;2024-01-07T01:28:25;0.70;99.90
22319;DHT22;11327;52.334;9.506;2024-01-07T01:31:46;0.70;99.90
22319;DHT22;11327;52.334;9.506;2024-01-07T01:35:07;0.80;99.90
22319;DHT22;11327;52.334;9.506;2024-01-07T01:38:28;0.80;99.90
22319;DHT22;11327;52.334;9.506;2024-01-07T01:41:48;0.80;99.90
22319;DHT22;11327;52.334;9.506;2024-01-07T01:45:09;0.80;99.90
22319;DHT22;11327;52.334;9.506;2024-01-07T01:48:30;0.80;99.90
22319;DHT22;11327;52.334;9.506;2024-01-07T01:51:51;0.80;99.90
22319;DHT22;11327;52.334;9.506;2024-01-07T01:55:13;0.70;99.90
22319;DHT22;11327;52.334;9.506;2024-01-07T01:58:34;0.70;99.90
22319;DHT22;11327;52.334;9.506;2024-01-07T02:01:55;0.70;99.90
22319;DHT22;11327;52.334;9.506;2024-01-07T02:05:16;0.60;99.90
22319;DHT22;11327;52.334;9.506;2024-01-07T02:08:36;0.60;99.90
22319;DHT22;11327;52.334;9.506;2024-01-07T02:12:04;0.60;99.90
22319;DHT22;11327;52.334;9.506;2024-01-07T02:15:25;0.60;99.90
22319;DHT22;11327;52.334;9.506;2024-01-07T02:18:46;0.60;99.90
22319;DHT22;11327;52.334;9.506;2024-01-07T02:22:07;0.50;99.90
22319;DHT22;11327;52.334;9.506;2024-01-07T02:25:27;0.50;99.90
22319;DHT22;11327;52.334;9.506;2024-01-07T02:28:48;0.50;99.90
22319;DHT22;11327;52.334;9.506;2024-01-07T02:32:09;0.50;99.90
22319;DHT22;11327;52.334;9.506;2024-01-07T02:35:29;0.50;99.90
22319;DHT22;11327;52.334;9.506;2024-01-07T02:38:50;0.50;99.90
22319;DHT22;11327;52.334;9.506;2024-01-07T02:42:11;0.50;99.90
22319;DHT22;11327;52.334;9.506;2024-01-07T02:45:31;0.50;99.90
22319;DHT22;11327;52.334;9.506;2024-01-07T02:48:52;0.50;99.90
22319;DHT22;11327;52.334;9.506;2024-01-07T02:52:13;0.50;99.90
22319;DHT22;11327;52.334;9.506;2024-01-07T02:55:34;0.50;99.90
22319;DHT22;11327;52.334;9.506;2024-01-07T02:58:54;0.50;99.90
22319;DHT22;11327;52.334;9.506;2024-01-07T03:02:15;0.50;99.90
22319;DHT22;11327;52.334;9.506;2024-01-07T03:05:36;0.50;99.90
22319;DHT22;11327;52.334;9.506;2024-01-07T03:08:56;0.40;99.90
22319;DHT22;11327;52.334;9.506;2024-01-07T03:12:17;0.40;99.90
22319;DHT22;11327;52.334;9.506;2024-01-07T03:15:38;0.30;99.90
22319;DHT22;11327;52.334;9.506;2024-01-07T03:18:58;0.30;99.90
22319;DHT22;11327;52.334;9.506;2024-01-07T03:22:19;0.30;99.90
22319;DHT22;11327;52.334;9.506;2024-01-07T03:25:40;0.20;99.90
22319;DHT22;11327;52.334;9.506;2024-01-07T03:29:01;0.30;99.90
22319;DHT22;11327;52.334;9.506;2024-01-07T03:32:22;0.30;99.90
22319;DHT22;11327;52.334;9.506;2024-01-07T03:35:43;0.30;99.90
22319;DHT22;11327;52.334;9.506;2024-01-07T03:39:04;0.20;99.90
22319;DHT22;11327;52.334;9.506;2024-01-07T03:42:25;0.30;99.90
22319;DHT22;11327;52.334;9.506;2024-01-07T03:45:45;0.30;99.90
22319;DHT22;11327;52.334;9.506;2024-01-07T03:49:06;0.30;99.90
22319;DHT22;11327;52.334;9.506;2024-01-07T03:52:27;0.30;99.90
22319;DHT22;11327;52.334;9.506;2024-01-07T03:55:49;0.20;99.90
22319;DHT22;11327;52.334;9.506;2024-01-07T03:59:09;0.20;99.90
22319;DHT22;11327;52.334;9.506;2024-01-07T04:02:30;0.10;99.90
22319;DHT22;11327;52.334;9.506;2024-01-07T04:05:51;0.00;99.90
22319;DHT22;11327;52.334;9.506;2024-01-07T04:09:11;0.00;99.90
22319;DHT22;11327;52.334;9.506;2024-01-07T04:12:32;0.10;99.90
22319;DHT22;11327;52.334;9.506;2024-01-07T04:15:53;0.20;99.90
22319;DHT22;11327;52.334;9.506;2024-01-07T04:19:14;0.10;99.90
22319;DHT22;11327;52.334;9.506;2024-01-07T04:22:34;0.00;99.90
22319;DHT22;11327;52.334;9.506;2024-01-07T04:25:55;0.00;99.90
22319;DHT22;11327;52.334;9.506;2024-01-07T04:29:16;0.00;99.90
22319;DHT22;11327;52.334;9.506;2024-01-07T04:32:36;0.00;99.90
22319;DHT22;11327;52.334;9.506;2024-01-07T04:35:57;-0.10;99.90
22319;DHT22;11327;52.334;9.506;2024-01-07T04:39:19;-0.10;99.90
22319;DHT22;11327;52.334;9.506;2024-01-07T04:42:40;-0.10;99.90
22319;DHT22;11327;52.334;9.506;2024-01-07T04:46:01;-0.10;99.90
22319;DHT22;11327;52.334;9.506;2024-01-07T04:49:22;-0.10;99.90
22319;DHT22;11327;52.334;9.506;2024-01-07T04:52:42;-0.10;99.90
22319;DHT22;11327;52.334;9.506;2024-01-07T04:56:04;-0.10;99.90
22319;DHT22;11327;52.334;9.506;2024-01-07T04:59:24;-0.10;99.90
22319;DHT22;11327;52.334;9.506;2024-01-07T05:02:45;-0.10;99.90
22319;DHT22;11327;52.334;9.506;2024-01-07T05:06:09;-0.10;99.90
22319;DHT22;11327;52.334;9.506;2024-01-07T05:09:32;-0.10;99.90
22319;DHT22;11327;52.334;9.506;2024-01-07T05:12:52;-0.10;99.90
22319;DHT22;11327;52.334;9.506;2024-01-07T05:16:20;-0.10;99.90
22319;DHT22;11327;52.334;9.506;2024-01-07T05:19:41;-0.10;99.90
22319;DHT22;11327;52.334;9.506;2024-01-07T05:23:02;-0.20;99.90
22319;DHT22;11327;52.334;9.506;2024-01-07T05:26:22;-0.10;99.90
22319;DHT22;11327;52.334;9.506;2024-01-07T05:29:46;-0.20;99.90
22319;DHT22;11327;52.334;9.506;2024-01-07T05:33:08;-0.10;99.90
22319;DHT22;11327;52.334;9.506;2024-01-07T05:36:28;-0.20;99.90
22319;DHT22;11327;52.334;9.506;2024-01-07T05:39:49;-0.10;99.90
22319;DHT22;11327;52.334;9.506;2024-01-07T05:43:10;-0.10;99.90
22319;DHT22;11327;52.334;9.506;2024-01-07T05:46:30;-0.10;99.90
22319;DHT22;11327;52.334;9.506;2024-01-07T05:49:51;-0.10;99.90
22319;DHT22;11327;52.334;9.506;2024-01-07T05:53:12;-0.20;99.90
22319;DHT22;11327;52.334;9.506;2024-01-07T05:56:38;-0.20;99.90
22319;DHT22;11327;52.334;9.506;2024-01-07T05:59:59;-0.20;99.90
22319;DHT22;11327;52.334;9.506;2024-01-07T06:03:20;-0.20;99.90
22319;DHT22;11327;52.334;9.506;2024-01-07T06:06:40;-0.20;99.90
22319;DHT22;11327;52.334;9.506;2024-01-07T06:10:01;-0.30;99.90
22319;DHT22;11327;52.334;9.506;2024-01-07T06:13:22;-0.30;99.90
22319;DHT22;11327;52.334;9.506;2024-01-07T06:16:43;-0.30;99.90
22319;DHT22;11327;52.334;9.506;2024-01-07T06:20:05;-0.20;99.90
22319;DHT22;11327;52.334;9.506;2024-01-07T06:23:26;-0.20;99.90
22319;DHT22;11327;52.334;9.506;2024-01-07T06:26:47;-0.20;99.90
22319;DHT22;11327;52.334;9.506;2024-01-07T06:30:08;-0.30;99.90
22319;DHT22;11327;52.334;9.506;2024-01-07T06:33:29;-0.30;99.90
22319;DHT22;11327;52.334;9.506;2024-01-07T06:36:50;-0.40;99.90
22319;DHT22;11327;52.334;9.506;2024-01-07T06:40:11;-0.30;99.90
22319;DHT22;11327;52.334;9.506;2024-01-07T06:43:32;-0.40;99.90
22319;DHT22;11327;52.334;9.506;2024-01-07T06:46:52;-0.40;99.90
22319;DHT22;11327;52.334;9.506;2024-01-07T06:50:13;-0.50;99.90
22319;DHT22;11327;52.334;9.506;2024-01-07T06:53:34;-0.40;99.90
22319;DHT22;11327;52.334;9.506;2024-01-07T06:56:54;-0.50;99.90
22319;DHT22;11327;52.334;9.506;2024-01-07T07:00:16;-0.50;99.90
22319;DHT22;11327;52.334;9.506;2024-01-07T07:03:39;-0.60;99.90
22319;DHT22;11327;52.334;9.506;2024-01-07T07:07:00;-0.60;99.90
22319;DHT22;11327;52.334;9.506;2024-01-07T07:10:20;-0.50;99.90
22319;DHT22;11327;52.334;9.506;2024-01-07T07:13:41;-0.50;99.90
22319;DHT22;11327;52.334;9.506;2024-01-07T07:17:02;-0.60;99.90
22319;DHT22;11327;52.334;9.506;2024-01-07T07:20:23;-0.60;99.90
22319;DHT22;11327;52.334;9.506;2024-01-07T07:23:44;-0.60;99.90
22319;DHT22;11327;52.334;9.506;2024-01-07T07:27:05;-0.60;99.90
22319;DHT22;11327;52.334;9.506;2024-01-07T07:30:26;-0.70;99.90
22319;DHT22;11327;52.334;9.506;2024-01-07T07:33:46;-0.70;99.90
22319;DHT22;11327;52.334;9.506;2024-01-07T07:37:07;-0.70;99.90
22319;DHT22;11327;52.334;9.506;2024-01-07T07:40:28;-0.70;99.90
22319;DHT22;11327;52.334;9.506;2024-01-07T07:43:48;-0.60;99.90
22319;DHT22;11327;52.334;9.506;2024-01-07T07:47:09;-0.60;99.90
22319;DHT22;11327;52.334;9.506;2024-01-07T07:50:32;-0.70;99.90
22319;DHT22;11327;52.334;9.506;2024-01-07T07:53:52;-0.70;99.90
22319;DHT22;11327;52.334;9.506;2024-01-07T07:57:13;-0.60;99.90
22319;DHT22;11327;52.334;9.506;2024-01-07T08:00:34;-0.60;99.90
22319;DHT22;11327;52.334;9.506;2024-01-07T08:03:54;-0.60;99.90
22319;DHT22;11327;52.334;9.506;2024-01-07T08:07:16;-0.60;99.90
22319;DHT22;11327;52.334;9.506;2024-01-07T08:10:36;-0.60;99.90
22319;DHT22;11327;52.334;9.506;2024-01-07T08:13:57;-0.50;99.90
22319;DHT22;11327;52.334;9.506;2024-01-07T08:17:18;-0.60;99.90
22319;DHT22;11327;52.334;9.506;2024-01-07T08:20:38;-0.60;99.90
22319;DHT22;11327;52.334;9.506;2024-01-07T08:23:59;-0.60;99.90
22319;DHT22;11327;52.334;9.506;2024-01-07T08:27:20;-0.60;99.90
22319;DHT22;11327;52.334;9.506;2024-01-07T08:30:40;-0.60;99.90
22319;DHT22;11327;52.334;9.506;2024-01-07T08:34:02;-0.50;99.90
22319;DHT22;11327;52.334;9.506;2024-01-07T08:37:22;-0.50;99.90
22319;DHT22;11327;52.334;9.506;2024-01-07T08:40:43;-0.40;99.90
22319;DHT22;11327;52.334;9.506;2024-01-07T08:44:04;-0.50;99.90
22319;DHT22;11327;52.334;9.506;2024-01-07T08:47:24;-0.50;99.90
22319;DHT22;11327;52.334;9.506;2024-01-07T08:50:45;-0.50;99.90
22319;DHT22;11327;52.334;9.506;2024-01-07T08:54:06;-0.50;99.90
22319;DHT22;11327;52.334;9.506;2024-01-07T08:57:27;-0.40;99.90
22319;DHT22;11327;52.334;9.506;2024-01-07T09:00:48;-0.50;99.90
22319;DHT22;11327;52.334;9.506;2024-01-07T09:04:09;-0.50;99.90
22319;DHT22;11327;52.334;9.506;2024-01-07T09:07:29;-0.50;99.90
22319;DHT22;11327;52.334;9.506;2024-01-07T09:10:50;-0.30;99.90
22319;DHT22;11327;52.334;9.506;2024-01-07T09:14:11;-0.30;99.90
22319;DHT22;11327;52.334;9.506;2024-01-07T09:17:31;-0.40;99.90
22319;DHT22;11327;52.334;9.506;2024-01-07T09:20:52;-0.30;99.90
22319;DHT22;11327;52.334;9.506;2024-01-07T09:24:13;-0.30;99.90
22319;DHT22;11327;52.334;9.506;2024-01-07T09:27:34;-0.30;99.90
22319;DHT22;11327;52.334;9.506;2024-01-07T09:30:55;-0.20;99.90
22319;DHT22;11327;52.334;9.506;2024-01-07T09:34:15;-0.20;99.90
22319;DHT22;11327;52.334;9.506;2024-01-07T09:37:36;-0.20;99.90
22319;DHT22;11327;52.334;9.506;2024-01-07T09:40:57;-0.20;99.90
22319;DHT22;11327;52.334;9.506;2024-01-07T09:44:18;-0.10;99.90
22319;DHT22;11327;52.334;9.506;2024-01-07T09:47:42;-0.10;99.90
22319;DHT22;11327;52.334;9.506;2024-01-07T09:51:06;0.00;99.90
22319;DHT22;11327;52.334;9.506;2024-01-07T09:54:29;0.00;99.90
22319;DHT22;11327;52.334;9.506;2024-01-07T09:57:50;0.00;99.90
22319;DHT22;11327;52.334;9.506;2024-01-07T10:01:12;0.00;99.90
22319;DHT22;11327;52.334;9.506;2024-01-07T10:04:33;0.00;99.90
22319;DHT22;11327;52.334;9.506;2024-01-07T10:07:54;0.00;99.90
22319;DHT22;11327;52.334;9.506;2024-01-07T10:11:17;0.00;99.90
22319;DHT22;11327;52.334;9.506;2024-01-07T10:14:38;0.00;99.90
22319;DHT22;11327;52.334;9.506;2024-01-07T10:18:04;0.00;99.90
22319;DHT22;11327;52.334;9.506;2024-01-07T10:21:26;0.00;99.90
22319;DHT22;11327;52.334;9.506;2024-01-07T10:24:46;-0.10;99.90
22319;DHT22;11327;52.334;9.506;2024-01-07T10:28:09;0.00;99.90
22319;DHT22;11327;52.334;9.506;2024-01-07T10:31:34;0.00;99.90
22319;DHT22;11327;52.334;9.506;2024-01-07T10:35:03;0.00;99.90
22319;DHT22;11327;52.334;9.506;2024-01-07T10:38:20;0.10;99.90
22319;DHT22;11327;52.334;9.506;2024-01-07T10:41:42;0.00;99.90
22319;DHT22;11327;52.334;9.506;2024-01-07T10:45:05;0.10;99.90
22319;DHT22;11327;52.334;9.506;2024-01-07T10:48:30;0.10;99.90
22319;DHT22;11327;52.334;9.506;2024-01-07T10:55:31;0.20;99.90
22319;DHT22;11327;52.334;9.506;2024-01-07T10:58:53;0.20;99.90
22319;DHT22;11327;52.334;9.506;2024-01-07T11:02:15;0.20;99.90
22319;DHT22;11327;52.334;9.506;2024-01-07T11:06:01;0.30;99.90
22319;DHT22;11327;52.334;9.506;2024-01-07T11:13:30;0.30;99.90
22319;DHT22;11327;52.334;9.506;2024-01-07T11:16:43;0.30;99.90
22319;DHT22;11327;52.334;9.506;2024-01-07T11:20:12;0.30;99.90
22319;DHT22;11327;52.334;9.506;2024-01-07T11:23:34;0.30;99.90
22319;DHT22;11327;52.334;9.506;2024-01-07T11:27:01;0.40;99.90
22319;DHT22;11327;52.334;9.506;2024-01-07T11:30:22;0.40;99.90
22319;DHT22;11327;52.334;9.506;2024-01-07T11:33:50;0.20;99.90
22319;DHT22;11327;52.334;9.506;2024-01-07T11:37:12;0.40;99.90
22319;DHT22;11327;52.334;9.506;2024-01-07T11:40:33;0.40;99.90
22319;DHT22;11327;52.334;9.506;2024-01-07T11:43:56;0.30;99.90
22319;DHT22;11327;52.334;9.506;2024-01-07T11:47:20;0.30;99.90
22319;DHT22;11327;52.334;9.506;2024-01-07T11:50:41;0.40;99.90
22319;DHT22;11327;52.334;9.506;2024-01-07T11:54:02;0.40;99.90
22319;DHT22;11327;52.334;9.506;2024-01-07T11:57:23;0.40;99.90
22319;DHT22;11327;52.334;9.506;2024-01-07T12:00:44;0.40;99.90
22319;DHT22;11327;52.334;9.506;2024-01-07T12:04:04;0.40;99.90
22319;DHT22;11327;52.334;9.506;2024-01-07T12:07:25;0.40;99.90
22319;DHT22;11327;52.334;9.506;2024-01-07T12:10:47;0.40;99.90
22319;DHT22;11327;52.334;9.506;2024-01-07T12:14:08;0.40;99.90
22319;DHT22;11327;52.334;9.506;2024-01-07T12:17:31;0.50;99.90
22319;DHT22;11327;52.334;9.506;2024-01-07T12:20:56;0.50;99.90
22319;DHT22;11327;52.334;9.506;2024-01-07T12:24:18;0.50;99.90
22319;DHT22;11327;52.334;9.506;2024-01-07T12:27:41;0.50;99.90
22319;DHT22;11327;52.334;9.506;2024-01-07T12:31:02;0.50;99.90
22319;DHT22;11327;52.334;9.506;2024-01-07T12:34:24;0.50;99.90
22319;DHT22;11327;52.334;9.506;2024-01-07T12:37:45;0.50;99.90
22319;DHT22;11327;52.334;9.506;2024-01-07T12:41:05;0.60;99.90
22319;DHT22;11327;52.334;9.506;2024-01-07T12:44:27;0.70;99.90
22319;DHT22;11327;52.334;9.506;2024-01-07T12:47:49;0.70;99.90
22319;DHT22;11327;52.334;9.506;2024-01-07T12:51:09;0.70;99.90
22319;DHT22;11327;52.334;9.506;2024-01-07T12:54:30;0.70;99.90
22319;DHT22;11327;52.334;9.506;2024-01-07T12:57:51;0.70;99.90
22319;DHT22;11327;52.334;9.506;2024-01-07T13:01:12;0.70;99.90
22319;DHT22;11327;52.334;9.506;2024-01-07T13:04:32;0.70;99.90
22319;DHT22;11327;52.334;9.506;2024-01-07T13:07:53;0.70;99.90
22319;DHT22;11327;52.334;9.506;2024-01-07T13:11:14;0.70;99.90
22319;DHT22;11327;52.334;9.506;2024-01-07T13:14:36;0.70;99.90
22319;DHT22;11327;52.334;9.506;2024-01-07T13:17:57;0.80;99.90
22319;DHT22;11327;52.334;9.506;2024-01-07T13:21:18;0.80;99.90
22319;DHT22;11327;52.334;9.506;2024-01-07T13:24:39;0.80;99.90
22319;DHT22;11327;52.334;9.506;2024-01-07T13:28:01;0.80;99.90
22319;DHT22;11327;52.334;9.506;2024-01-07T13:31:22;0.80;99.90
22319;DHT22;11327;52.334;9.506;2024-01-07T13:34:44;0.80;99.90
22319;DHT22;11327;52.334;9.506;2024-01-07T13:38:05;0.80;99.90
22319;DHT22;11327;52.334;9.506;2024-01-07T13:41:26;0.80;99.90
22319;DHT22;11327;52.334;9.506;2024-01-07T13:44:48;0.70;99.90
22319;DHT22;11327;52.334;9.506;2024-01-07T13:48:09;0.80;99.90
22319;DHT22;11327;52.334;9.506;2024-01-07T13:51:30;0.70;99.90
22319;DHT22;11327;52.334;9.506;2024-01-07T13:54:50;0.80;99.90
22319;DHT22;11327;52.334;9.506;2024-01-07T13:58:11;0.70;99.90
22319;DHT22;11327;52.334;9.506;2024-01-07T14:01:32;0.70;99.90
22319;DHT22;11327;52.334;9.506;2024-01-07T14:04:52;0.70;99.90
22319;DHT22;11327;52.334;9.506;2024-01-07T14:08:13;0.80;99.90
22319;DHT22;11327;52.334;9.506;2024-01-07T14:11:34;0.70;99.90
22319;DHT22;11327;52.334;9.506;2024-01-07T14:14:55;0.70;99.90
22319;DHT22;11327;52.334;9.506;2024-01-07T14:18:16;0.70;99.90
22319;DHT22;11327;52.334;9.506;2024-01-07T14:21:39;0.70;99.90
22319;DHT22;11327;52.334;9.506;2024-01-07T14:24:59;0.70;99.90
22319;DHT22;11327;52.334;9.506;2024-01-07T14:28:20;0.70;99.90
22319;DHT22;11327;52.334;9.506;2024-01-07T14:31:41;0.60;99.90
22319;DHT22;11327;52.334;9.506;2024-01-07T14:35:02;0.60;99.90
22319;DHT22;11327;52.334;9.506;2024-01-07T14:38:23;0.50;99.90
22319;DHT22;11327;52.334;9.506;2024-01-07T14:41:45;0.50;99.90
22319;DHT22;11327;52.334;9.506;2024-01-07T14:45:07;0.40;99.90
22319;DHT22;11327;52.334;9.506;2024-01-07T14:48:29;0.50;99.90
22319;DHT22;11327;52.334;9.506;2024-01-07T14:51:50;0.50;99.90
22319;DHT22;11327;52.334;9.506;2024-01-07T14:55:11;0.40;99.90
22319;DHT22;11327;52.334;9.506;2024-01-07T14:58:33;0.30;99.90
22319;DHT22;11327;52.334;9.506;2024-01-07T15:01:53;0.20;99.90
22319;DHT22;11327;52.334;9.506;2024-01-07T15:05:14;0.20;99.90
22319;DHT22;11327;52.334;9.506;2024-01-07T15:08:35;0.20;99.90
22319;DHT22;11327;52.334;9.506;2024-01-07T15:11:56;0.20;99.90
22319;DHT22;11327;52.334;9.506;2024-01-07T15:15:17;0.10;99.90
22319;DHT22;11327;52.334;9.506;2024-01-07T15:18:39;0.10;99.90
22319;DHT22;11327;52.334;9.506;2024-01-07T15:22:00;0.00;99.90
22319;DHT22;11327;52.334;9.506;2024-01-07T15:25:20;0.00;99.90
22319;DHT22;11327;52.334;9.506;2024-01-07T15:28:41;0.00;99.90
22319;DHT22;11327;52.334;9.506;2024-01-07T15:32:02;0.00;99.90
22319;DHT22;11327;52.334;9.506;2024-01-07T15:35:23;-0.10;99.90
22319;DHT22;11327;52.334;9.506;2024-01-07T15:38:44;0.00;99.90
22319;DHT22;11327;52.334;9.506;2024-01-07T15:42:04;-0.10;99.90
22319;DHT22;11327;52.334;9.506;2024-01-07T15:45:25;-0.10;99.90
22319;DHT22;11327;52.334;9.506;2024-01-07T15:48:46;-0.20;99.90
22319;DHT22;11327;52.334;9.506;2024-01-07T15:52:06;-0.20;99.90
22319;DHT22;11327;52.334;9.506;2024-01-07T15:55:28;-0.20;99.90
22319;DHT22;11327;52.334;9.506;2024-01-07T15:58:48;-0.20;99.90
22319;DHT22;11327;52.334;9.506;2024-01-07T16:02:09;-0.30;99.90
22319;DHT22;11327;52.334;9.506;2024-01-07T16:05:30;-0.30;99.90
22319;DHT22;11327;52.334;9.506;2024-01-07T16:08:51;-0.30;99.90
22319;DHT22;11327;52.334;9.506;2024-01-07T16:12:11;-0.40;99.90
22319;DHT22;11327;52.334;9.506;2024-01-07T16:15:34;-0.40;99.90
22319;DHT22;11327;52.334;9.506;2024-01-07T16:18:55;-0.40;99.90
22319;DHT22;11327;52.334;9.506;2024-01-07T16:22:15;-0.40;99.90
22319;DHT22;11327;52.334;9.506;2024-01-07T16:25:37;-0.40;99.90
22319;DHT22;11327;52.334;9.506;2024-01-07T16:28:58;-0.40;99.90
22319;DHT22;11327;52.334;9.506;2024-01-07T16:32:18;-0.40;99.90
22319;DHT22;11327;52.334;9.506;2024-01-07T16:35:39;-0.40;99.90
22319;DHT22;11327;52.334;9.506;2024-01-07T16:39:00;-0.50;99.90
22319;DHT22;11327;52.334;9.506;2024-01-07T16:42:22;-0.40;99.90
22319;DHT22;11327;52.334;9.506;2024-01-07T16:45:43;-0.40;99.90
22319;DHT22;11327;52.334;9.506;2024-01-07T16:49:04;-0.50;99.90
22319;DHT22;11327;52.334;9.506;2024-01-07T16:52:25;-0.40;99.90
22319;DHT22;11327;52.334;9.506;2024-01-07T16:55:46;-0.40;99.90
22319;DHT22;11327;52.334;9.506;2024-01-07T16:59:07;-0.40;99.90
22319;DHT22;11327;52.334;9.506;2024-01-07T17:02:30;-0.30;99.90
22319;DHT22;11327;52.334;9.506;2024-01-07T17:05:51;-0.30;99.90
22319;DHT22;11327;52.334;9.506;2024-01-07T17:09:11;-0.30;99.90
22319;DHT22;11327;52.334;9.506;2024-01-07T17:12:32;-0.20;99.90
22319;DHT22;11327;52.334;9.506;2024-01-07T17:15:53;-0.20;99.90
22319;DHT22;11327;52.334;9.506;2024-01-07T17:19:14;-0.20;99.90
22319;DHT22;11327;52.334;9.506;2024-01-07T17:22:34;-0.20;99.90
22319;DHT22;11327;52.334;9.506;2024-01-07T17:25:55;-0.20;99.90
22319;DHT22;11327;52.334;9.506;2024-01-07T17:29:17;-0.10;99.90
22319;DHT22;11327;52.334;9.506;2024-01-07T17:32:37;-0.10;99.90
22319;DHT22;11327;52.334;9.506;2024-01-07T17:35:58;-0.10;99.90
22319;DHT22;11327;52.334;9.506;2024-01-07T17:39:19;-0.30;99.90
22319;DHT22;11327;52.334;9.506;2024-01-07T17:42:40;-0.40;99.90
22319;DHT22;11327;52.334;9.506;2024-01-07T17:46:01;-0.30;99.90
22319;DHT22;11327;52.334;9.506;2024-01-07T17:49:23;-0.40;99.90
22319;DHT22;11327;52.334;9.506;2024-01-07T17:52:43;-0.30;99.90
22319;DHT22;11327;52.334;9.506;2024-01-07T17:56:05;-0.30;99.90
22319;DHT22;11327;52.334;9.506;2024-01-07T17:59:26;-0.30;99.90
22319;DHT22;11327;52.334;9.506;2024-01-07T18:02:48;-0.40;99.90
22319;DHT22;11327;52.334;9.506;2024-01-07T18:06:08;-0.40;99.90
22319;DHT22;11327;52.334;9.506;2024-01-07T18:09:29;-0.50;99.90
22319;DHT22;11327;52.334;9.506;2024-01-07T18:12:50;-0.50;99.90
22319;DHT22;11327;52.334;9.506;2024-01-07T18:16:10;-0.50;99.90
22319;DHT22;11327;52.334;9.506;2024-01-07T18:19:34;-0.50;99.90
22319;DHT22;11327;52.334;9.506;2024-01-07T18:22:54;-0.50;99.90
22319;DHT22;11327;52.334;9.506;2024-01-07T18:26:15;-0.50;99.90
22319;DHT22;11327;52.334;9.506;2024-01-07T18:29:36;-0.70;99.90
22319;DHT22;11327;52.334;9.506;2024-01-07T18:32:57;-0.70;99.90
22319;DHT22;11327;52.334;9.506;2024-01-07T18:36:18;-0.70;99.90
22319;DHT22;11327;52.334;9.506;2024-01-07T18:39:38;-0.60;99.90
22319;DHT22;11327;52.334;9.506;2024-01-07T18:42:59;-0.70;99.90
22319;DHT22;11327;52.334;9.506;2024-01-07T18:46:21;-0.70;99.90
22319;DHT22;11327;52.334;9.506;2024-01-07T18:49:42;-0.70;99.90
22319;DHT22;11327;52.334;9.506;2024-01-07T18:53:03;-0.70;99.90
22319;DHT22;11327;52.334;9.506;2024-01-07T18:56:23;-0.70;99.90
22319;DHT22;11327;52.334;9.506;2024-01-07T18:59:44;-0.70;99.90
22319;DHT22;11327;52.334;9.506;2024-01-07T19:03:05;-0.80;99.90
22319;DHT22;11327;52.334;9.506;2024-01-07T19:06:25;-0.80;99.90
22319;DHT22;11327;52.334;9.506;2024-01-07T19:09:47;-0.80;99.90
22319;DHT22;11327;52.334;9.506;2024-01-07T19:13:07;-0.80;99.90
22319;DHT22;11327;52.334;9.506;2024-01-07T19:16:28;-0.80;99.90
22319;DHT22;11327;52.334;9.506;2024-01-07T19:19:49;-0.80;99.90
22319;DHT22;11327;52.334;9.506;2024-01-07T19:23:10;-0.80;99.90
22319;DHT22;11327;52.334;9.506;2024-01-07T19:26:31;-0.80;99.90
22319;DHT22;11327;52.334;9.506;2024-01-07T19:29:51;-0.80;99.90
22319;DHT22;11327;52.334;9.506;2024-01-07T19:33:12;-0.80;99.90
22319;DHT22;11327;52.334;9.506;2024-01-07T19:36:33;-0.90;99.90
22319;DHT22;11327;52.334;9.506;2024-01-07T19:39:54;-0.80;99.90
22319;DHT22;11327;52.334;9.506;2024-01-07T19:43:17;-0.80;99.90
22319;DHT22;11327;52.334;9.506;2024-01-07T19:46:38;-0.80;99.90
22319;DHT22;11327;52.334;9.506;2024-01-07T19:49:58;-0.80;99.90
22319;DHT22;11327;52.334;9.506;2024-01-07T19:53:20;-0.90;99.90
22319;DHT22;11327;52.334;9.506;2024-01-07T19:56:41;-0.90;99.90
22319;DHT22;11327;52.334;9.506;2024-01-07T20:00:02;-0.90;99.90
22319;DHT22;11327;52.334;9.506;2024-01-07T20:03:22;-1.00;99.90
22319;DHT22;11327;52.334;9.506;2024-01-07T20:06:45;-1.00;99.90
22319;DHT22;11327;52.334;9.506;2024-01-07T20:10:06;-1.00;99.90
22319;DHT22;11327;52.334;9.506;2024-01-07T20:13:28;-1.10;99.90
22319;DHT22;11327;52.334;9.506;2024-01-07T20:16:48;-1.00;99.90
22319;DHT22;11327;52.334;9.506;2024-01-07T20:20:09;-1.20;99.90
22319;DHT22;11327;52.334;9.506;2024-01-07T20:23:31;-1.20;99.90
22319;DHT22;11327;52.334;9.506;2024-01-07T20:26:51;-1.20;99.90
22319;DHT22;11327;52.334;9.506;2024-01-07T20:30:12;-1.20;99.90
22319;DHT22;11327;52.334;9.506;2024-01-07T20:33:35;-1.30;99.90
22319;DHT22;11327;52.334;9.506;2024-01-07T20:36:56;-1.20;99.90
22319;DHT22;11327;52.334;9.506;2024-01-07T20:40:17;-1.30;99.90
22319;DHT22;11327;52.334;9.506;2024-01-07T20:43:38;-1.30;99.90
22319;DHT22;11327;52.334;9.506;2024-01-07T20:46:58;-1.30;99.90
22319;DHT22;11327;52.334;9.506;2024-01-07T20:50:19;-1.30;99.90
22319;DHT22;11327;52.334;9.506;2024-01-07T20:53:40;-1.30;99.90
22319;DHT22;11327;52.334;9.506;2024-01-07T20:57:03;-1.30;99.90
22319;DHT22;11327;52.334;9.506;2024-01-07T21:00:23;-1.40;99.90
22319;DHT22;11327;52.334;9.506;2024-01-07T21:03:45;-1.40;99.90
22319;DHT22;11327;52.334;9.506;2024-01-07T21:07:07;-1.40;99.90
22319;DHT22;11327;52.334;9.506;2024-01-07T21:10:28;-1.40;99.90
22319;DHT22;11327;52.334;9.506;2024-01-07T21:13:49;-1.50;99.90
22319;DHT22;11327;52.334;9.506;2024-01-07T21:17:09;-1.40;99.90
22319;DHT22;11327;52.334;9.506;2024-01-07T21:20:31;-1.40;99.90
22319;DHT22;11327;52.334;9.506;2024-01-07T21:23:52;-1.40;99.90
22319;DHT22;11327;52.334;9.506;2024-01-07T21:27:13;-1.50;99.90